Terminal Aerodrome Forecast
Issued by NWS

Home | Current Version | Previous Version | Text Only | Print | Product List | Glossary Off
Versions: 1 2 3 4 5 6 7 8 9 10 11 12 13 14

000
FTUS43 KTOP 210520
TAFMHK
TAF
KMHK 210520Z 2106/2206 18019G29KT P6SM BKN150
     FM210900 19017G25KT P6SM OVC015
     FM211500 20017G25KT P6SM OVC020
     FM211700 20018G26KT P6SM VCSH OVC025
     FM211900 22017KT P6SM TSRA OVC020CB
     FM212200 32010KT P6SM -SHRA VCTS BKN040CB
     FM220000 34010G19KT P6SM BKN060=

USA.gov is the U.S. government's official web portal to all federal, state and local government web resources and services.